createdAt,value
2023-06-22T00:01:12.286Z,3.35
2023-06-22T00:02:45.999Z,3.78
2023-06-22T00:04:19.221Z,2.55
2023-06-22T00:05:53.853Z,3.20
2023-06-22T00:07:27.011Z,2.85
2023-06-22T00:09:00.229Z,3.42
2023-06-22T00:10:33.405Z,3.20
2023-06-22T00:12:08.820Z,3.45
2023-06-22T00:13:42.199Z,3.00
2023-06-22T00:15:15.600Z,3.65
2023-06-22T00:16:49.189Z,3.90
2023-06-22T00:18:22.461Z,3.45
2023-06-22T00:19:55.591Z,3.60
2023-06-22T00:21:29.011Z,3.58
2023-06-22T00:23:02.291Z,4.03
2023-06-22T00:24:35.524Z,3.92
2023-06-22T00:26:09.178Z,3.65
2023-06-22T00:27:42.666Z,3.50
2023-06-22T00:29:17.126Z,3.40
2023-06-22T00:30:53.427Z,2.78
2023-06-22T00:32:27.727Z,4.00
2023-06-22T00:34:01.933Z,3.05
2023-06-22T00:35:35.601Z,3.42
2023-06-22T00:37:09.857Z,3.65
2023-06-22T00:38:43.429Z,3.65
2023-06-22T00:40:17.159Z,3.25
2023-06-22T00:41:50.594Z,3.25
2023-06-22T00:43:23.561Z,3.42
2023-06-22T00:44:56.951Z,3.25
2023-06-22T00:46:33.738Z,3.38
2023-06-22T00:48:13.034Z,3.70
2023-06-22T00:49:50.769Z,3.28
2023-06-22T00:51:24.101Z,3.28
2023-06-22T00:53:01.752Z,2.97
2023-06-22T00:54:35.839Z,3.80
2023-06-22T00:56:09.020Z,2.88
2023-06-22T00:57:42.576Z,3.05
2023-06-22T00:59:16.799Z,2.97
2023-06-22T01:00:51.022Z,3.33
2023-06-22T01:05:24.252Z,3.10
2023-06-22T01:07:29.344Z,2.67
2023-06-22T01:09:33.901Z,2.97
2023-06-22T01:11:21.733Z,3.50
2023-06-22T01:13:03.009Z,2.88
2023-06-22T01:14:54.945Z,3.03
2023-06-22T01:16:35.740Z,2.70
2023-06-22T01:18:12.470Z,3.55
2023-06-22T01:19:49.064Z,3.50
2023-06-22T01:21:25.843Z,3.08
2023-06-22T01:23:29.503Z,4.25
2023-06-22T01:25:33.139Z,2.85
2023-06-22T01:27:29.730Z,3.20
2023-06-22T01:29:10.041Z,3.67
2023-06-22T01:30:47.153Z,3.40
2023-06-22T01:32:22.203Z,3.08
2023-06-22T01:34:00.958Z,3.25
2023-06-22T01:35:38.637Z,2.90
2023-06-22T01:37:16.930Z,3.00
2023-06-22T01:38:53.143Z,2.90
2023-06-22T01:40:30.511Z,3.20
2023-06-22T01:42:06.959Z,4.03
2023-06-22T01:43:41.888Z,2.72
2023-06-22T01:45:19.766Z,3.85
2023-06-22T01:46:54.580Z,3.05
2023-06-22T01:48:28.859Z,3.47
2023-06-22T01:50:02.979Z,2.83
2023-06-22T01:51:38.966Z,2.95
2023-06-22T01:53:15.375Z,3.60
2023-06-22T01:54:49.332Z,3.22
2023-06-22T01:56:23.154Z,3.10
2023-06-22T01:57:56.300Z,3.20
2023-06-22T01:59:57.876Z,3.13
2023-06-22T02:01:44.824Z,3.55
2023-06-22T02:03:31.315Z,2.97
2023-06-22T02:05:09.917Z,2.83
2023-06-22T02:06:47.763Z,3.20
2023-06-22T02:08:33.830Z,2.60
2023-06-22T02:10:13.059Z,2.75
2023-06-22T02:11:49.010Z,2.50
2023-06-22T02:13:23.117Z,2.60
2023-06-22T02:14:57.422Z,2.80
2023-06-22T02:16:33.616Z,3.28
2023-06-22T02:18:07.310Z,3.05
2023-06-22T02:19:43.095Z,2.70
2023-06-22T02:21:16.391Z,2.75
2023-06-22T02:22:49.792Z,2.55
2023-06-22T02:24:23.027Z,2.65
2023-06-22T02:25:56.191Z,3.33
2023-06-22T02:27:29.933Z,2.50
2023-06-22T02:29:03.237Z,2.63
2023-06-22T02:30:36.626Z,2.90
2023-06-22T02:32:10.235Z,3.50
2023-06-22T02:33:47.066Z,3.05
2023-06-22T02:35:20.337Z,3.08
2023-06-22T02:36:53.412Z,2.60
2023-06-22T02:38:26.495Z,3.00
2023-06-22T02:39:59.784Z,3.05
2023-06-22T02:41:33.018Z,3.13
2023-06-22T02:43:06.634Z,2.80
2023-06-22T02:44:39.636Z,2.80
2023-06-22T02:46:14.471Z,2.90
2023-06-22T02:47:47.940Z,3.55
2023-06-22T02:49:21.409Z,3.00
2023-06-22T02:50:54.377Z,2.88
2023-06-22T02:52:27.862Z,3.58
2023-06-22T02:54:01.391Z,3.20
2023-06-22T02:55:34.770Z,2.85
2023-06-22T02:57:08.680Z,3.17
2023-06-22T02:58:42.103Z,3.33
2023-06-22T03:00:16.106Z,3.20
2023-06-22T03:01:49.185Z,2.97
2023-06-22T03:03:22.168Z,2.92
2023-06-22T03:04:55.604Z,3.00
2023-06-22T03:06:28.700Z,3.10
2023-06-22T03:08:01.930Z,3.08
2023-06-22T03:09:35.106Z,3.50
2023-06-22T03:11:08.987Z,3.85
2023-06-22T03:12:43.816Z,3.45
2023-06-22T03:14:17.332Z,3.67
2023-06-22T03:15:50.651Z,3.03
2023-06-22T03:17:23.751Z,2.63
2023-06-22T03:18:57.214Z,2.72
2023-06-22T03:20:30.536Z,3.20
2023-06-22T03:22:04.447Z,3.42
2023-06-22T03:23:37.514Z,3.05
2023-06-22T03:25:11.415Z,3.53
2023-06-22T03:26:44.646Z,2.70
2023-06-22T03:28:18.211Z,2.95
2023-06-22T03:29:51.266Z,3.42
2023-06-22T03:31:24.965Z,2.92
2023-06-22T03:32:58.154Z,3.38
2023-06-22T03:34:31.232Z,3.30
2023-06-22T03:36:04.683Z,3.03
2023-06-22T03:37:38.474Z,3.20
2023-06-22T03:39:11.464Z,3.00
2023-06-22T03:40:45.094Z,2.75
2023-06-22T03:42:19.213Z,3.05
2023-06-22T03:43:52.721Z,3.03
2023-06-22T03:45:25.735Z,3.35
2023-06-22T03:46:58.851Z,3.08
2023-06-22T03:48:32.368Z,3.00
2023-06-22T03:50:07.204Z,3.35
2023-06-22T03:51:40.435Z,3.20
2023-06-22T03:53:13.426Z,3.25
2023-06-22T03:54:46.493Z,3.00
2023-06-22T03:56:19.722Z,2.55
2023-06-22T03:57:52.841Z,3.10
2023-06-22T03:59:26.722Z,3.30
2023-06-22T04:01:00.455Z,3.40
2023-06-22T04:02:33.777Z,3.17
2023-06-22T04:04:10.718Z,3.17
2023-06-22T04:05:44.042Z,3.33
2023-06-22T04:07:17.974Z,3.08
2023-06-22T04:08:51.637Z,3.58
2023-06-22T04:10:24.883Z,3.28
2023-06-22T04:11:58.130Z,2.70
2023-06-22T04:13:31.717Z,2.85
2023-06-22T04:15:07.135Z,2.88
2023-06-22T04:16:40.537Z,3.08
2023-06-22T04:18:13.704Z,3.30
2023-06-22T04:19:47.078Z,3.55
2023-06-22T04:21:21.416Z,2.97
2023-06-22T04:22:55.492Z,2.97
2023-06-22T04:24:28.499Z,3.40
2023-06-22T04:26:01.430Z,3.10
2023-06-22T04:27:35.368Z,3.13
2023-06-22T04:29:11.482Z,3.28
2023-06-22T04:30:47.779Z,6.70
2023-06-22T04:32:21.357Z,7.47
2023-06-22T04:33:54.652Z,4.43
2023-06-22T04:35:28.250Z,3.40
2023-06-22T04:37:01.343Z,4.40
2023-06-22T04:38:34.322Z,4.95
2023-06-22T04:40:09.983Z,4.00
2023-06-22T04:41:45.092Z,3.45
2023-06-22T04:43:19.024Z,3.58
2023-06-22T04:44:52.276Z,3.53
2023-06-22T04:46:25.980Z,3.70
2023-06-22T04:48:00.925Z,3.70
2023-06-22T04:49:34.359Z,3.17
2023-06-22T04:51:08.700Z,4.38
2023-06-22T04:52:41.989Z,3.20
2023-06-22T04:54:15.150Z,3.10
2023-06-22T04:55:48.152Z,3.30
2023-06-22T04:57:21.392Z,3.75
2023-06-22T04:58:55.343Z,3.38
2023-06-22T05:00:28.633Z,3.88
2023-06-22T05:02:03.283Z,3.40
2023-06-22T05:03:36.615Z,2.63
2023-06-22T05:05:10.212Z,3.13
2023-06-22T05:06:43.258Z,3.10
2023-06-22T05:08:16.149Z,3.70
2023-06-22T05:09:49.111Z,3.55
2023-06-22T05:11:22.319Z,3.53
2023-06-22T05:12:55.444Z,3.47
2023-06-22T05:14:28.838Z,4.03
2023-06-22T05:16:02.148Z,3.50
2023-06-22T05:17:37.949Z,3.92
2023-06-22T05:19:12.111Z,3.15
2023-06-22T05:20:45.246Z,3.17
2023-06-22T05:22:18.843Z,3.58
2023-06-22T05:23:54.649Z,2.67
2023-06-22T05:25:27.676Z,3.88
2023-06-22T05:27:01.056Z,2.92
2023-06-22T05:28:34.472Z,3.33
2023-06-22T05:30:10.587Z,3.33
2023-06-22T05:31:44.196Z,3.65
2023-06-22T05:33:17.684Z,3.42
2023-06-22T05:34:50.985Z,3.38
2023-06-22T05:36:24.317Z,2.95
2023-06-22T05:37:57.745Z,3.42
2023-06-22T05:39:31.642Z,3.17
2023-06-22T05:41:05.791Z,4.10
2023-06-22T05:42:39.815Z,3.28
2023-06-22T05:44:13.052Z,3.47
2023-06-22T05:45:46.202Z,3.67
2023-06-22T05:47:19.771Z,3.30
2023-06-22T05:48:53.184Z,3.78
2023-06-22T05:50:27.576Z,3.03
2023-06-22T05:52:01.005Z,3.38
2023-06-22T05:53:34.161Z,3.72
2023-06-22T05:55:09.223Z,3.72
2023-06-22T05:56:42.878Z,3.60
2023-06-22T05:58:16.516Z,3.88
2023-06-22T05:59:49.561Z,3.33
2023-06-22T06:01:22.942Z,3.60
2023-06-22T06:02:56.611Z,3.83
2023-06-22T06:04:30.873Z,3.83
2023-06-22T06:06:04.132Z,4.07
2023-06-22T06:07:37.418Z,3.72
2023-06-22T06:09:10.635Z,4.10
2023-06-22T06:10:44.161Z,4.32
2023-06-22T06:12:18.111Z,4.22
2023-06-22T06:13:52.012Z,4.22
2023-06-22T06:15:26.117Z,4.47
2023-06-22T06:16:59.054Z,3.63
2023-06-22T06:18:32.441Z,3.88
2023-06-22T06:20:06.898Z,4.00
2023-06-22T06:21:40.652Z,4.40
2023-06-22T06:23:13.723Z,3.78
2023-06-22T06:24:47.163Z,3.88
2023-06-22T06:26:20.923Z,3.75
2023-06-22T06:27:54.499Z,4.22
2023-06-22T06:29:30.519Z,4.57
2023-06-22T06:31:04.062Z,3.88
2023-06-22T06:32:37.469Z,4.45
2023-06-22T06:34:11.629Z,3.97
2023-06-22T06:35:44.878Z,4.72
2023-06-22T06:37:19.024Z,4.10
2023-06-22T06:38:55.222Z,4.55
2023-06-22T06:40:29.513Z,4.63
2023-06-22T06:42:06.874Z,4.57
2023-06-22T06:43:40.272Z,3.97
2023-06-22T06:45:14.556Z,4.55
2023-06-22T06:46:48.364Z,3.75
2023-06-22T06:48:21.462Z,4.18
2023-06-22T06:49:54.503Z,4.45
2023-06-22T06:51:27.914Z,3.88
2023-06-22T06:53:00.870Z,4.70
2023-06-22T06:54:33.871Z,4.30
2023-06-22T06:56:07.521Z,4.50
2023-06-22T06:57:42.090Z,4.40
2023-06-22T06:59:16.039Z,4.50
2023-06-22T07:00:49.133Z,3.97
2023-06-22T07:02:22.284Z,3.63
2023-06-22T07:03:55.351Z,3.42
2023-06-22T07:05:28.400Z,3.63
2023-06-22T07:07:03.570Z,5.90
2023-06-22T07:08:38.861Z,5.63
2023-06-22T07:10:12.453Z,5.63
2023-06-22T07:11:45.481Z,6.72
2023-06-22T07:13:18.423Z,6.93
2023-06-22T07:14:53.175Z,6.82
2023-06-22T07:16:26.326Z,7.05
2023-06-22T07:17:59.596Z,7.30
2023-06-22T07:19:35.047Z,6.20
2023-06-22T07:21:10.557Z,7.10
2023-06-22T07:22:46.004Z,6.57
2023-06-22T07:24:19.515Z,5.80
2023-06-22T07:25:52.615Z,6.35
2023-06-22T07:27:27.123Z,5.38
2023-06-22T07:29:01.234Z,5.82
2023-06-22T07:30:35.986Z,5.82
2023-06-22T07:32:10.821Z,5.80
2023-06-22T07:33:44.266Z,6.60
2023-06-22T07:35:18.364Z,6.10
2023-06-22T07:36:52.141Z,6.70
2023-06-22T07:38:26.057Z,7.03
2023-06-22T07:39:59.057Z,7.63
2023-06-22T07:41:32.846Z,6.90
2023-06-22T07:43:09.712Z,7.43
2023-06-22T07:44:42.992Z,7.82
2023-06-22T07:46:18.644Z,7.80
2023-06-22T07:47:51.856Z,7.13
2023-06-22T07:49:24.863Z,7.35
2023-06-22T07:50:59.081Z,6.85
2023-06-22T07:52:33.556Z,6.70
2023-06-22T07:54:07.882Z,7.03
2023-06-22T07:55:41.022Z,7.13
2023-06-22T07:57:14.534Z,7.78
2023-06-22T07:58:48.942Z,7.03
2023-06-22T08:00:22.592Z,7.18
2023-06-22T08:01:57.145Z,5.90
2023-06-22T08:03:30.360Z,6.20
2023-06-22T08:05:14.865Z,7.30
2023-06-22T08:06:54.623Z,6.60
2023-06-22T08:08:27.840Z,6.80
2023-06-22T08:10:00.948Z,6.07
2023-06-22T08:11:35.203Z,6.88
2023-06-22T08:13:11.172Z,6.20
2023-06-22T08:14:44.538Z,6.53
2023-06-22T08:16:17.688Z,6.50
2023-06-22T08:17:50.792Z,6.47
2023-06-22T08:19:27.935Z,7.38
2023-06-22T08:21:02.779Z,7.53
2023-06-22T08:22:37.069Z,6.63
2023-06-22T08:24:10.360Z,6.72
2023-06-22T08:25:46.766Z,7.43
2023-06-22T08:27:20.114Z,6.70
2023-06-22T08:28:52.978Z,6.70
2023-06-22T08:30:26.065Z,6.47
2023-06-22T08:31:59.471Z,6.13
2023-06-22T08:33:33.943Z,5.90
2023-06-22T08:35:10.846Z,6.05
2023-06-22T08:36:43.801Z,6.97
2023-06-22T08:38:17.582Z,5.55
2023-06-22T08:39:50.889Z,6.78
2023-06-22T08:41:23.746Z,6.35
2023-06-22T08:42:57.230Z,6.72
2023-06-22T08:44:36.451Z,6.25
2023-06-22T08:46:10.926Z,6.68
2023-06-22T08:47:44.447Z,7.43
2023-06-22T08:49:18.035Z,6.22
2023-06-22T08:50:51.847Z,6.75
2023-06-22T08:52:26.172Z,5.82
2023-06-22T08:53:59.260Z,5.68
2023-06-22T08:55:33.609Z,5.30
2023-06-22T08:57:12.443Z,5.43
2023-06-22T08:58:45.991Z,5.78
2023-06-22T09:00:26.492Z,5.78
2023-06-22T09:01:59.617Z,6.05
2023-06-22T09:03:33.966Z,6.13
2023-06-22T09:05:10.510Z,5.25
2023-06-22T09:06:44.860Z,5.97
2023-06-22T09:08:19.171Z,5.90
2023-06-22T09:09:52.953Z,5.50
2023-06-22T09:11:26.882Z,5.65
2023-06-22T09:13:03.528Z,6.18
2023-06-22T09:14:39.180Z,5.82
2023-06-22T09:16:13.064Z,5.65
2023-06-22T09:17:46.484Z,5.70
2023-06-22T09:19:20.108Z,5.95
2023-06-22T09:20:54.460Z,5.45
2023-06-22T09:22:31.906Z,5.45
2023-06-22T09:24:11.592Z,5.82
2023-06-22T09:25:51.459Z,5.60
2023-06-22T09:27:27.750Z,4.97
2023-06-22T09:29:02.698Z,5.57
2023-06-22T09:30:35.875Z,5.55
2023-06-22T09:32:14.225Z,5.63
2023-06-22T09:33:47.448Z,5.05
2023-06-22T09:35:21.213Z,5.05
2023-06-22T09:36:57.885Z,4.72
2023-06-22T09:38:31.331Z,5.32
2023-06-22T09:40:11.364Z,5.07
2023-06-22T09:41:44.957Z,5.43
2023-06-22T09:43:21.679Z,5.28
2023-06-22T09:44:55.119Z,5.10
2023-06-22T09:46:32.290Z,5.07
2023-06-22T09:48:09.777Z,4.90
2023-06-22T09:49:48.495Z,4.47
2023-06-22T09:51:30.724Z,5.07
2023-06-22T09:53:04.070Z,5.15
2023-06-22T09:54:43.037Z,5.57
2023-06-22T09:56:16.931Z,5.05
2023-06-22T09:57:50.652Z,5.40
2023-06-22T09:59:23.935Z,4.85
2023-06-22T10:00:57.120Z,4.95
2023-06-22T10:02:30.430Z,5.45
2023-06-22T10:04:04.298Z,4.93
2023-06-22T10:05:38.707Z,4.80
2023-06-22T10:07:13.568Z,5.30
2023-06-22T10:08:46.994Z,5.40
2023-06-22T10:10:20.656Z,5.57
2023-06-22T10:11:58.070Z,5.10
2023-06-22T10:13:31.583Z,5.57
2023-06-22T10:15:06.158Z,4.68
2023-06-22T10:16:40.896Z,4.95
2023-06-22T10:18:15.717Z,4.95
2023-06-22T10:19:50.108Z,4.55
2023-06-22T10:21:27.080Z,5.25
2023-06-22T10:23:00.408Z,5.32
2023-06-22T10:24:48.818Z,5.25
2023-06-22T10:26:40.519Z,4.60
2023-06-22T10:28:14.262Z,4.68
2023-06-22T10:29:47.386Z,3.97
2023-06-22T10:31:24.299Z,4.57
2023-06-22T10:32:58.670Z,4.72
2023-06-22T10:34:32.050Z,4.97
2023-06-22T10:36:08.083Z,4.63
2023-06-22T10:37:45.457Z,4.50
2023-06-22T10:39:18.787Z,4.78
2023-06-22T10:40:52.034Z,4.55
2023-06-22T10:42:28.322Z,4.45
2023-06-22T10:44:06.500Z,4.45
2023-06-22T10:45:43.097Z,4.50
2023-06-22T10:47:16.328Z,4.68
2023-06-22T10:48:50.924Z,3.92
2023-06-22T10:50:25.118Z,4.45
2023-06-22T10:51:58.354Z,4.13
2023-06-22T10:53:33.145Z,4.40
2023-06-22T10:55:14.037Z,4.25
2023-06-22T10:56:47.215Z,4.38
2023-06-22T10:58:21.823Z,4.45
2023-06-22T10:59:54.966Z,4.35
2023-06-22T11:01:35.861Z,4.28
2023-06-22T11:03:12.315Z,3.80
2023-06-22T11:04:45.996Z,4.35
2023-06-22T11:06:19.373Z,4.13
2023-06-22T11:07:52.669Z,4.07
2023-06-22T11:09:29.619Z,5.00
2023-06-22T11:11:03.287Z,4.28
2023-06-22T11:12:37.192Z,4.13
2023-06-22T11:14:10.930Z,3.80
2023-06-22T11:15:44.394Z,4.40
2023-06-22T11:17:18.074Z,4.38
2023-06-22T11:18:51.204Z,4.25
2023-06-22T11:20:34.174Z,3.83
2023-06-22T11:22:11.560Z,4.22
2023-06-22T11:23:45.184Z,3.65
2023-06-22T11:25:19.137Z,3.67
2023-06-22T11:26:52.659Z,3.60
2023-06-22T11:28:34.069Z,3.45
2023-06-22T11:30:11.672Z,3.78
2023-06-22T11:31:44.951Z,4.00
2023-06-22T11:33:20.454Z,4.57
2023-06-22T11:34:55.624Z,4.00
2023-06-22T11:36:31.193Z,3.95
2023-06-22T11:38:13.940Z,4.35
2023-06-22T11:39:59.871Z,3.58
2023-06-22T11:41:45.463Z,3.78
2023-06-22T11:43:23.321Z,3.95
2023-06-22T11:44:57.757Z,3.83
2023-06-22T11:46:37.581Z,3.78
2023-06-22T11:48:13.939Z,3.60
2023-06-22T11:49:53.249Z,3.70
2023-06-22T11:51:26.749Z,3.20
2023-06-22T11:53:03.529Z,3.47
2023-06-22T11:54:37.879Z,4.13
2023-06-22T11:56:14.689Z,4.40
2023-06-22T11:57:57.365Z,3.92
2023-06-22T11:59:30.847Z,3.67
2023-06-22T12:01:04.422Z,4.20
2023-06-22T12:02:39.431Z,3.80
2023-06-22T12:04:13.165Z,3.67
2023-06-22T12:05:51.168Z,3.88
2023-06-22T12:07:24.586Z,3.72
2023-06-22T12:08:58.745Z,3.58
2023-06-22T12:10:32.451Z,3.33
2023-06-22T12:12:17.563Z,3.67
2023-06-22T12:13:54.614Z,3.60
2023-06-22T12:15:28.578Z,3.33
2023-06-22T12:17:01.613Z,3.13
2023-06-22T12:18:42.693Z,3.78
2023-06-22T12:20:19.135Z,4.13
2023-06-22T12:21:52.741Z,3.67
2023-06-22T12:23:27.751Z,3.60
2023-06-22T12:25:01.890Z,3.67
2023-06-22T12:26:36.991Z,3.33
2023-06-22T12:28:12.252Z,3.72
2023-06-22T12:29:50.410Z,3.88
2023-06-22T12:31:23.997Z,3.67
2023-06-22T12:32:57.416Z,3.65
2023-06-22T12:34:33.706Z,4.75
2023-06-22T12:36:11.214Z,3.92
2023-06-22T12:37:48.874Z,3.55
2023-06-22T12:39:24.553Z,3.65
2023-06-22T12:40:58.068Z,5.22
2023-06-22T12:42:31.338Z,4.00
2023-06-22T12:44:08.989Z,3.22
2023-06-22T12:45:43.636Z,3.75
2023-06-22T12:47:17.018Z,3.28
2023-06-22T12:48:50.670Z,3.92
2023-06-22T12:50:23.958Z,3.60
2023-06-22T12:51:59.158Z,3.42
2023-06-22T12:53:38.128Z,3.47
2023-06-22T12:55:12.010Z,3.92
2023-06-22T12:56:45.679Z,3.28
2023-06-22T12:58:19.836Z,3.05
2023-06-22T12:59:53.627Z,3.10
2023-06-22T13:01:27.716Z,3.20
2023-06-22T13:03:01.417Z,3.78
2023-06-22T13:04:34.772Z,3.55
2023-06-22T13:06:12.220Z,3.33
2023-06-22T13:07:45.977Z,3.47
2023-06-22T13:09:24.464Z,4.07
2023-06-22T13:10:57.691Z,3.47
2023-06-22T13:12:32.570Z,3.42
2023-06-22T13:14:07.620Z,3.55
2023-06-22T13:15:44.572Z,3.45
2023-06-22T13:17:18.786Z,3.63
2023-06-22T13:18:56.580Z,4.38
2023-06-22T13:20:31.045Z,3.58
2023-06-22T13:22:04.493Z,3.70
2023-06-22T13:23:37.764Z,3.75
2023-06-22T13:25:11.961Z,3.50
2023-06-22T13:26:45.083Z,3.53
2023-06-22T13:28:27.684Z,3.28
2023-06-22T13:30:02.500Z,3.53
2023-06-22T13:31:35.680Z,4.05
2023-06-22T13:33:12.154Z,4.15
2023-06-22T13:34:47.338Z,3.22
2023-06-22T13:36:20.786Z,3.88
2023-06-22T13:37:54.318Z,3.88
2023-06-22T13:39:28.771Z,3.42
2023-06-22T13:41:02.530Z,3.55
2023-06-22T13:42:36.168Z,3.45
2023-06-22T13:44:09.410Z,3.95
2023-06-22T13:45:45.224Z,3.70
2023-06-22T13:47:19.137Z,3.50
2023-06-22T13:48:54.400Z,4.05
2023-06-22T13:50:38.758Z,3.40
2023-06-22T13:52:19.520Z,3.90
2023-06-22T13:54:00.317Z,3.70
2023-06-22T13:55:46.403Z,3.70
2023-06-22T13:57:30.024Z,3.53
2023-06-22T13:59:07.924Z,3.50
2023-06-22T14:00:49.952Z,3.95
2023-06-22T14:02:29.129Z,3.35
2023-06-22T14:04:10.359Z,3.15
2023-06-22T14:05:53.319Z,3.90
2023-06-22T14:07:26.618Z,3.53
2023-06-22T14:09:04.471Z,3.53
2023-06-22T14:10:49.238Z,3.50
2023-06-22T14:12:26.552Z,3.60
2023-06-22T14:14:06.534Z,3.38
2023-06-22T14:15:53.019Z,3.55
2023-06-22T14:17:30.751Z,3.60
2023-06-22T14:19:11.471Z,4.25
2023-06-22T14:20:53.153Z,3.05
2023-06-22T14:22:26.738Z,3.50
2023-06-22T14:24:09.983Z,3.20
2023-06-22T14:25:52.487Z,3.67
2023-06-22T14:27:32.696Z,3.55
2023-06-22T14:29:12.420Z,3.17
2023-06-22T14:30:49.810Z,3.70
2023-06-22T14:32:27.239Z,3.38
2023-06-22T14:34:16.980Z,3.92
2023-06-22T14:35:55.748Z,3.22
2023-06-22T14:37:35.725Z,3.38
2023-06-22T14:39:18.135Z,4.07
2023-06-22T14:41:12.001Z,3.58
2023-06-22T14:42:51.580Z,3.58
2023-06-22T14:44:25.337Z,4.07
2023-06-22T14:45:58.638Z,3.58
2023-06-22T14:47:33.536Z,4.40
2023-06-22T14:49:16.045Z,3.85
2023-06-22T14:50:50.768Z,3.95
2023-06-22T14:52:32.932Z,3.60
2023-06-22T14:54:14.190Z,4.40
2023-06-22T14:55:49.177Z,3.70
2023-06-22T14:57:28.351Z,3.83
2023-06-22T14:59:05.473Z,4.28
2023-06-22T15:00:50.771Z,3.65
2023-06-22T15:02:24.593Z,3.20
2023-06-22T15:04:12.986Z,3.55
2023-06-22T15:05:47.585Z,3.78
2023-06-22T15:07:21.055Z,3.85
2023-06-22T15:08:54.867Z,3.17
2023-06-22T15:10:28.377Z,4.05
2023-06-22T15:12:01.627Z,4.10
2023-06-22T15:13:35.860Z,3.72
2023-06-22T15:15:09.663Z,3.60
2023-06-22T15:16:43.235Z,3.72
2023-06-22T15:18:17.651Z,3.28
2023-06-22T15:19:52.089Z,3.45
2023-06-22T15:21:33.040Z,3.45
2023-06-22T15:23:10.045Z,3.55
2023-06-22T15:24:49.166Z,3.35
2023-06-22T15:26:26.694Z,3.53
2023-06-22T15:28:10.037Z,3.42
2023-06-22T15:29:43.521Z,3.63
2023-06-22T15:31:18.347Z,3.50
2023-06-22T15:32:55.700Z,3.88
2023-06-22T15:34:35.768Z,3.45
2023-06-22T15:36:15.231Z,3.85
2023-06-22T15:38:06.489Z,3.28
2023-06-22T15:39:41.249Z,3.53
2023-06-22T15:41:21.692Z,3.72
2023-06-22T15:43:16.483Z,4.40
2023-06-22T15:45:00.921Z,4.10
2023-06-22T15:46:38.591Z,3.83
2023-06-22T15:48:28.723Z,3.20
2023-06-22T15:50:19.385Z,3.47
2023-06-22T15:51:59.568Z,3.22
2023-06-22T15:53:51.566Z,3.83
2023-06-22T15:55:49.147Z,3.38
2023-06-22T15:57:33.266Z,3.95
2023-06-22T15:59:26.131Z,3.40
2023-06-22T16:01:00.482Z,3.13
2023-06-22T16:05:10.129Z,3.47
2023-06-22T16:07:08.856Z,4.03
2023-06-22T16:08:51.128Z,3.83
2023-06-22T16:10:37.013Z,3.85
2023-06-22T16:12:16.173Z,3.97
2023-06-22T16:14:03.083Z,3.80
2023-06-22T16:15:50.912Z,4.03
2023-06-22T16:17:33.973Z,4.25
2023-06-22T16:19:18.372Z,3.60
2023-06-22T16:20:54.739Z,3.42
2023-06-22T16:24:35.938Z,3.55
2023-06-22T16:26:16.592Z,3.75
2023-06-22T16:28:03.454Z,3.67
2023-06-22T16:31:51.636Z,3.58
2023-06-22T16:33:39.308Z,3.33
2023-06-22T16:35:55.095Z,3.42
2023-06-22T16:37:36.418Z,3.50
2023-06-22T16:39:48.552Z,3.88
2023-06-22T16:41:32.082Z,3.72
2023-06-22T16:43:50.452Z,3.53
2023-06-22T16:45:48.606Z,3.78
2023-06-22T16:47:23.236Z,3.22
2023-06-22T16:49:11.973Z,4.22
2023-06-22T16:50:52.354Z,3.60
2023-06-22T16:52:32.247Z,3.88
2023-06-22T16:54:18.075Z,3.08
2023-06-22T16:55:51.857Z,4.03
2023-06-22T16:57:37.106Z,4.43
2023-06-22T16:59:28.877Z,3.50
2023-06-22T17:01:10.987Z,3.88
2023-06-22T17:02:59.085Z,3.80
2023-06-22T17:04:46.260Z,3.80
2023-06-22T17:06:20.637Z,3.85
2023-06-22T17:08:03.151Z,3.33
2023-06-22T17:09:41.086Z,3.78
2023-06-22T17:11:15.172Z,3.28
2023-06-22T17:12:50.458Z,3.53
2023-06-22T17:14:25.559Z,3.60
2023-06-22T17:16:05.474Z,3.05
2023-06-22T17:17:42.081Z,3.97
2023-06-22T17:19:34.438Z,3.38
2023-06-22T17:21:23.774Z,3.60
2023-06-22T17:22:58.109Z,3.22
2023-06-22T17:24:37.660Z,3.10
2023-06-22T17:26:18.294Z,3.75
2023-06-22T17:28:08.905Z,3.72
2023-06-22T17:30:16.528Z,3.25
2023-06-22T17:32:15.954Z,2.72
2023-06-22T17:34:12.249Z,3.55
2023-06-22T17:35:51.326Z,3.60
2023-06-22T17:37:57.198Z,4.38
2023-06-22T17:39:56.683Z,3.42
2023-06-22T17:41:49.295Z,3.30
2023-06-22T17:43:26.009Z,3.67
2023-06-22T17:45:04.045Z,3.67
2023-06-22T17:46:43.728Z,3.05
2023-06-22T17:48:34.589Z,4.03
2023-06-22T17:50:35.354Z,3.72
2023-06-22T17:52:21.483Z,3.33
2023-06-22T17:54:07.429Z,3.38
2023-06-22T17:55:55.622Z,3.45
2023-06-22T17:57:39.585Z,4.05
2023-06-22T17:59:17.940Z,3.60
2023-06-22T18:00:54.737Z,3.47
2023-06-22T18:02:39.913Z,3.65
2023-06-22T18:04:22.006Z,4.05
2023-06-22T18:06:06.957Z,3.60
2023-06-22T18:07:57.438Z,3.63
2023-06-22T18:09:34.462Z,2.97
2023-06-22T18:11:23.678Z,3.25
2023-06-22T18:13:39.664Z,3.03
2023-06-22T18:15:30.722Z,3.60
2023-06-22T18:17:10.158Z,3.78
2023-06-22T18:18:51.683Z,3.67
2023-06-22T18:20:32.262Z,3.58
2023-06-22T18:22:11.814Z,3.63
2023-06-22T18:23:53.310Z,3.78
2023-06-22T18:25:44.566Z,3.22
2023-06-22T18:27:35.722Z,3.97
2023-06-22T18:29:38.860Z,3.28
2023-06-22T18:31:15.239Z,3.25
2023-06-22T18:32:52.704Z,3.33
2023-06-22T18:34:36.479Z,3.40
2023-06-22T18:36:24.287Z,3.47
2023-06-22T18:38:16.999Z,3.80
2023-06-22T18:40:22.525Z,3.25
2023-06-22T18:42:22.042Z,3.03
2023-06-22T18:44:04.983Z,3.60
2023-06-22T18:45:51.169Z,3.38
2023-06-22T18:47:35.087Z,3.40
2023-06-22T18:49:23.961Z,3.17
2023-06-22T18:51:15.097Z,3.20
2023-06-22T18:53:17.532Z,4.00
2023-06-22T18:55:07.175Z,2.85
2023-06-22T18:57:39.312Z,3.95
2023-06-22T18:59:18.629Z,3.45
2023-06-22T19:01:17.934Z,3.40
2023-06-22T19:02:54.081Z,4.47
2023-06-22T19:04:27.496Z,2.92
2023-06-22T19:06:03.352Z,3.40
2023-06-22T19:07:51.309Z,3.55
2023-06-22T19:09:24.453Z,3.58
2023-06-22T19:11:13.014Z,3.00
2023-06-22T19:12:47.415Z,3.38
2023-06-22T19:14:32.616Z,2.95
2023-06-22T19:16:37.550Z,3.17
2023-06-22T19:18:21.957Z,3.13
2023-06-22T19:20:34.995Z,3.42
2023-06-22T19:22:14.537Z,3.85
2023-06-22T19:23:49.429Z,3.22
2023-06-22T19:25:33.438Z,2.90
2023-06-22T19:27:31.354Z,3.30
2023-06-22T19:29:30.676Z,3.15
2023-06-22T19:31:08.069Z,3.10
2023-06-22T19:32:51.353Z,3.45
2023-06-22T19:34:29.985Z,2.83
2023-06-22T19:36:04.393Z,3.38
2023-06-22T19:37:49.300Z,3.30
2023-06-22T19:39:58.847Z,3.20
2023-06-22T19:41:49.686Z,3.78
2023-06-22T19:43:49.704Z,2.67
2023-06-22T19:45:34.782Z,3.33
2023-06-22T19:47:16.648Z,2.60
2023-06-22T19:48:59.886Z,3.03
2023-06-22T19:50:44.137Z,3.70
2023-06-22T19:52:21.227Z,3.92
2023-06-22T19:53:59.005Z,3.10
2023-06-22T19:55:34.802Z,3.28
2023-06-22T19:57:13.906Z,3.33
2023-06-22T19:58:53.062Z,2.95
2023-06-22T20:00:28.688Z,3.60
2023-06-22T20:02:19.543Z,2.97
2023-06-22T20:04:04.867Z,3.70
2023-06-22T20:05:48.943Z,3.22
2023-06-22T20:07:48.679Z,3.63
2023-06-22T20:09:31.829Z,3.40
2023-06-22T20:11:13.978Z,2.90
2023-06-22T20:12:53.508Z,2.70
2023-06-22T20:14:37.975Z,3.65
2023-06-22T20:16:13.942Z,4.30
2023-06-22T20:18:06.797Z,3.45
2023-06-22T20:19:40.489Z,3.00
2023-06-22T20:21:16.327Z,2.90
2023-06-22T20:22:49.905Z,3.33
2023-06-22T20:24:24.018Z,3.75
2023-06-22T20:25:59.127Z,3.88
2023-06-22T20:27:44.223Z,2.97
2023-06-22T20:29:37.895Z,3.60
2023-06-22T20:31:23.576Z,2.95
2023-06-22T20:33:05.801Z,3.13
2023-06-22T20:35:01.405Z,3.33
2023-06-22T20:36:48.031Z,3.17
2023-06-22T20:38:26.352Z,3.35
2023-06-22T20:40:28.926Z,3.50
2023-06-22T20:42:57.656Z,3.88
2023-06-22T20:44:09.647Z,3.40
2023-06-22T20:45:47.277Z,3.60
2023-06-22T20:47:21.289Z,3.17
2023-06-22T20:48:54.569Z,3.30
2023-06-22T20:50:28.949Z,3.30
2023-06-22T20:52:02.409Z,3.53
2023-06-22T20:53:35.425Z,3.42
2023-06-22T20:55:08.795Z,3.03
2023-06-22T20:56:41.891Z,4.03
2023-06-22T20:58:15.285Z,3.33
2023-06-22T20:59:48.630Z,3.25
2023-06-22T21:01:22.062Z,2.92
2023-06-22T21:02:57.852Z,3.42
2023-06-22T21:04:33.602Z,3.28
2023-06-22T21:06:07.603Z,3.80
2023-06-22T21:07:41.847Z,4.32
2023-06-22T21:09:15.117Z,3.10
2023-06-22T21:10:48.487Z,3.70
2023-06-22T21:12:22.099Z,3.45
2023-06-22T21:13:58.355Z,3.65
2023-06-22T21:15:39.181Z,3.42
2023-06-22T21:17:12.722Z,3.63
2023-06-22T21:18:46.364Z,3.80
2023-06-22T21:20:19.491Z,3.38
2023-06-22T21:21:53.186Z,3.50
2023-06-22T21:23:34.335Z,3.17
2023-06-22T21:25:16.565Z,3.53
2023-06-22T21:26:52.965Z,4.00
2023-06-22T21:28:51.703Z,3.22
2023-06-22T21:32:45.416Z,3.67
2023-06-22T21:34:22.857Z,3.97
2023-06-22T21:36:20.167Z,3.55
2023-06-22T21:37:58.603Z,3.97
2023-06-22T21:39:56.266Z,3.25
2023-06-22T21:41:51.085Z,3.70
2023-06-22T21:43:31.679Z,3.67
2023-06-22T21:45:09.703Z,3.95
2023-06-22T21:47:06.730Z,3.58
2023-06-22T21:49:07.033Z,4.68
2023-06-22T21:51:01.698Z,3.67
2023-06-22T21:52:38.417Z,3.42
2023-06-22T21:54:30.331Z,3.42
2023-06-22T21:56:07.668Z,3.95
2023-06-22T21:57:44.753Z,3.78